sensor_id;sensor_type;location;lat;lon;timestamp;P1;durP1;ratioP1;P2;durP2;ratioP2
23169;SDS011;11753;43.144;24.714;2022-11-15T00:00:33;6.32;;;4.40;;
23169;SDS011;11753;43.144;24.714;2022-11-15T00:01:34;7.32;;;4.43;;
23169;SDS011;11753;43.144;24.714;2022-11-15T00:02:37;7.05;;;4.32;;
23169;SDS011;11753;43.144;24.714;2022-11-15T00:03:37;7.43;;;4.68;;
23169;SDS011;11753;43.144;24.714;2022-11-15T00:04:38;7.13;;;4.50;;
23169;SDS011;11753;43.144;24.714;2022-11-15T00:05:39;7.28;;;4.68;;
23169;SDS011;11753;43.144;24.714;2022-11-15T00:06:39;7.88;;;4.65;;
23169;SDS011;11753;43.144;24.714;2022-11-15T00:07:40;7.63;;;4.60;;
23169;SDS011;11753;43.144;24.714;2022-11-15T00:08:40;8.20;;;5.25;;
23169;SDS011;11753;43.144;24.714;2022-11-15T00:09:41;5.53;;;4.00;;
23169;SDS011;11753;43.144;24.714;2022-11-15T00:10:42;6.70;;;4.68;;
23169;SDS011;11753;43.144;24.714;2022-11-15T00:11:42;8.07;;;4.45;;
23169;SDS011;11753;43.144;24.714;2022-11-15T00:12:43;6.43;;;4.63;;
23169;SDS011;11753;43.144;24.714;2022-11-15T00:13:43;6.57;;;4.28;;
23169;SDS011;11753;43.144;24.714;2022-11-15T00:14:44;6.88;;;4.65;;
23169;SDS011;11753;43.144;24.714;2022-11-15T00:15:45;6.28;;;4.20;;
23169;SDS011;11753;43.144;24.714;2022-11-15T00:16:45;6.05;;;3.90;;
23169;SDS011;11753;43.144;24.714;2022-11-15T00:17:48;6.88;;;4.45;;
23169;SDS011;11753;43.144;24.714;2022-11-15T00:18:50;7.00;;;4.78;;
23169;SDS011;11753;43.144;24.714;2022-11-15T00:19:51;6.00;;;4.50;;
23169;SDS011;11753;43.144;24.714;2022-11-15T00:20:51;6.68;;;4.88;;
23169;SDS011;11753;43.144;24.714;2022-11-15T00:21:52;6.75;;;4.47;;
23169;SDS011;11753;43.144;24.714;2022-11-15T00:22:53;6.72;;;4.45;;
23169;SDS011;11753;43.144;24.714;2022-11-15T00:23:53;6.90;;;4.63;;
23169;SDS011;11753;43.144;24.714;2022-11-15T00:24:54;7.90;;;4.85;;
23169;SDS011;11753;43.144;24.714;2022-11-15T00:25:55;6.32;;;4.30;;
23169;SDS011;11753;43.144;24.714;2022-11-15T00:26:59;6.38;;;4.43;;
23169;SDS011;11753;43.144;24.714;2022-11-15T00:28:00;6.95;;;4.60;;
23169;SDS011;11753;43.144;24.714;2022-11-15T00:29:01;6.82;;;4.70;;
23169;SDS011;11753;43.144;24.714;2022-11-15T00:30:01;6.95;;;4.32;;
23169;SDS011;11753;43.144;24.714;2022-11-15T00:31:03;6.93;;;5.07;;
23169;SDS011;11753;43.144;24.714;2022-11-15T00:32:05;6.70;;;4.78;;
23169;SDS011;11753;43.144;24.714;2022-11-15T00:33:06;7.68;;;4.47;;
23169;SDS011;11753;43.144;24.714;2022-11-15T00:34:07;7.30;;;5.03;;
23169;SDS011;11753;43.144;24.714;2022-11-15T00:35:09;7.35;;;4.82;;
23169;SDS011;11753;43.144;24.714;2022-11-15T00:36:09;7.63;;;4.93;;
23169;SDS011;11753;43.144;24.714;2022-11-15T00:37:11;7.65;;;4.90;;
23169;SDS011;11753;43.144;24.714;2022-11-15T00:38:12;7.47;;;4.95;;
23169;SDS011;11753;43.144;24.714;2022-11-15T00:39:12;8.38;;;5.28;;
23169;SDS011;11753;43.144;24.714;2022-11-15T00:40:14;6.70;;;4.78;;
23169;SDS011;11753;43.144;24.714;2022-11-15T00:41:15;7.13;;;4.93;;
23169;SDS011;11753;43.144;24.714;2022-11-15T00:42:15;6.97;;;4.93;;
23169;SDS011;11753;43.144;24.714;2022-11-15T00:43:16;7.32;;;5.15;;
23169;SDS011;11753;43.144;24.714;2022-11-15T00:44:16;8.13;;;5.18;;
23169;SDS011;11753;43.144;24.714;2022-11-15T00:45:17;7.28;;;4.82;;
23169;SDS011;11753;43.144;24.714;2022-11-15T00:46:17;7.07;;;5.10;;
23169;SDS011;11753;43.144;24.714;2022-11-15T00:47:18;7.38;;;5.45;;
23169;SDS011;11753;43.144;24.714;2022-11-15T00:48:18;7.93;;;5.20;;
23169;SDS011;11753;43.144;24.714;2022-11-15T00:49:19;7.40;;;5.20;;
23169;SDS011;11753;43.144;24.714;2022-11-15T00:50:19;8.15;;;5.47;;
23169;SDS011;11753;43.144;24.714;2022-11-15T00:51:20;8.45;;;5.85;;
23169;SDS011;11753;43.144;24.714;2022-11-15T00:52:21;7.43;;;5.13;;
23169;SDS011;11753;43.144;24.714;2022-11-15T00:53:21;7.93;;;5.57;;
23169;SDS011;11753;43.144;24.714;2022-11-15T00:54:22;8.23;;;6.20;;
23169;SDS011;11753;43.144;24.714;2022-11-15T00:55:22;7.43;;;5.30;;
23169;SDS011;11753;43.144;24.714;2022-11-15T00:56:23;8.52;;;5.90;;
23169;SDS011;11753;43.144;24.714;2022-11-15T00:57:24;8.07;;;5.57;;
23169;SDS011;11753;43.144;24.714;2022-11-15T00:58:24;9.15;;;6.10;;
23169;SDS011;11753;43.144;24.714;2022-11-15T00:59:25;8.15;;;5.47;;
23169;SDS011;11753;43.144;24.714;2022-11-15T01:00:26;8.82;;;6.10;;
23169;SDS011;11753;43.144;24.714;2022-11-15T01:01:26;7.97;;;5.70;;
23169;SDS011;11753;43.144;24.714;2022-11-15T01:02:27;9.10;;;5.97;;
23169;SDS011;11753;43.144;24.714;2022-11-15T01:03:28;10.32;;;5.95;;
23169;SDS011;11753;43.144;24.714;2022-11-15T01:04:28;7.72;;;5.80;;
23169;SDS011;11753;43.144;24.714;2022-11-15T01:05:29;8.73;;;6.20;;
23169;SDS011;11753;43.144;24.714;2022-11-15T01:06:29;8.27;;;5.95;;
23169;SDS011;11753;43.144;24.714;2022-11-15T01:07:30;8.27;;;5.20;;
23169;SDS011;11753;43.144;24.714;2022-11-15T01:08:33;9.07;;;5.70;;
23169;SDS011;11753;43.144;24.714;2022-11-15T01:09:34;9.48;;;5.55;;
23169;SDS011;11753;43.144;24.714;2022-11-15T01:10:34;7.88;;;5.40;;
23169;SDS011;11753;43.144;24.714;2022-11-15T01:11:37;7.60;;;5.32;;
23169;SDS011;11753;43.144;24.714;2022-11-15T01:12:37;8.40;;;5.60;;
23169;SDS011;11753;43.144;24.714;2022-11-15T01:13:38;7.95;;;5.88;;
23169;SDS011;11753;43.144;24.714;2022-11-15T01:14:39;9.23;;;5.95;;
23169;SDS011;11753;43.144;24.714;2022-11-15T01:15:40;10.18;;;6.30;;
23169;SDS011;11753;43.144;24.714;2022-11-15T01:16:41;7.45;;;5.22;;
23169;SDS011;11753;43.144;24.714;2022-11-15T01:17:43;7.93;;;5.63;;
23169;SDS011;11753;43.144;24.714;2022-11-15T01:18:44;7.95;;;5.15;;
23169;SDS011;11753;43.144;24.714;2022-11-15T01:19:45;8.20;;;5.75;;
23169;SDS011;11753;43.144;24.714;2022-11-15T01:20:46;8.77;;;5.85;;
23169;SDS011;11753;43.144;24.714;2022-11-15T01:21:48;7.72;;;5.35;;
23169;SDS011;11753;43.144;24.714;2022-11-15T01:22:50;8.20;;;5.80;;
23169;SDS011;11753;43.144;24.714;2022-11-15T01:23:54;7.63;;;5.65;;
23169;SDS011;11753;43.144;24.714;2022-11-15T01:24:56;8.13;;;5.50;;
23169;SDS011;11753;43.144;24.714;2022-11-15T01:26:00;7.43;;;5.28;;
23169;SDS011;11753;43.144;24.714;2022-11-15T01:27:01;8.05;;;5.43;;
23169;SDS011;11753;43.144;24.714;2022-11-15T01:28:02;7.35;;;5.07;;
23169;SDS011;11753;43.144;24.714;2022-11-15T01:29:04;8.35;;;5.35;;
23169;SDS011;11753;43.144;24.714;2022-11-15T01:30:05;8.73;;;5.57;;
23169;SDS011;11753;43.144;24.714;2022-11-15T01:31:09;8.23;;;5.88;;
23169;SDS011;11753;43.144;24.714;2022-11-15T01:32:14;8.25;;;5.20;;
23169;SDS011;11753;43.144;24.714;2022-11-15T01:33:15;8.23;;;5.72;;
23169;SDS011;11753;43.144;24.714;2022-11-15T01:34:15;9.57;;;5.55;;
23169;SDS011;11753;43.144;24.714;2022-11-15T01:35:17;9.63;;;5.85;;
23169;SDS011;11753;43.144;24.714;2022-11-15T01:36:19;7.45;;;5.45;;
23169;SDS011;11753;43.144;24.714;2022-11-15T01:37:24;8.07;;;5.50;;
23169;SDS011;11753;43.144;24.714;2022-11-15T01:38:25;7.78;;;5.30;;
23169;SDS011;11753;43.144;24.714;2022-11-15T01:39:26;8.38;;;5.50;;
23169;SDS011;11753;43.144;24.714;2022-11-15T01:40:27;8.85;;;5.95;;
23169;SDS011;11753;43.144;24.714;2022-11-15T01:41:29;7.55;;;5.43;;
23169;SDS011;11753;43.144;24.714;2022-11-15T01:42:32;8.18;;;5.65;;
23169;SDS011;11753;43.144;24.714;2022-11-15T01:43:36;8.73;;;5.88;;
23169;SDS011;11753;43.144;24.714;2022-11-15T01:44:39;9.20;;;5.50;;
23169;SDS011;11753;43.144;24.714;2022-11-15T01:45:42;7.25;;;4.93;;
23169;SDS011;11753;43.144;24.714;2022-11-15T01:46:46;8.50;;;5.53;;
23169;SDS011;11753;43.144;24.714;2022-11-15T01:47:49;7.93;;;5.78;;
23169;SDS011;11753;43.144;24.714;2022-11-15T01:48:53;6.90;;;5.47;;
23169;SDS011;11753;43.144;24.714;2022-11-15T01:49:59;9.55;;;5.35;;
23169;SDS011;11753;43.144;24.714;2022-11-15T01:51:04;7.32;;;5.47;;
23169;SDS011;11753;43.144;24.714;2022-11-15T01:52:10;8.85;;;5.90;;
23169;SDS011;11753;43.144;24.714;2022-11-15T01:53:15;8.07;;;5.65;;
23169;SDS011;11753;43.144;24.714;2022-11-15T01:54:16;8.20;;;5.80;;
23169;SDS011;11753;43.144;24.714;2022-11-15T01:55:22;10.55;;;5.78;;
23169;SDS011;11753;43.144;24.714;2022-11-15T01:56:27;8.40;;;5.45;;
23169;SDS011;11753;43.144;24.714;2022-11-15T01:57:30;6.93;;;5.45;;
23169;SDS011;11753;43.144;24.714;2022-11-15T01:58:31;8.05;;;5.63;;
23169;SDS011;11753;43.144;24.714;2022-11-15T01:59:33;7.72;;;5.50;;
23169;SDS011;11753;43.144;24.714;2022-11-15T02:00:35;6.80;;;4.97;;
23169;SDS011;11753;43.144;24.714;2022-11-15T02:01:36;7.22;;;5.22;;
23169;SDS011;11753;43.144;24.714;2022-11-15T02:02:38;8.80;;;6.20;;
23169;SDS011;11753;43.144;24.714;2022-11-15T02:05:22;8.63;;;5.63;;
23169;SDS011;11753;43.144;24.714;2022-11-15T02:06:24;8.30;;;5.57;;
23169;SDS011;11753;43.144;24.714;2022-11-15T02:07:25;8.30;;;5.75;;
23169;SDS011;11753;43.144;24.714;2022-11-15T02:08:26;7.55;;;5.38;;
23169;SDS011;11753;43.144;24.714;2022-11-15T02:09:28;8.50;;;5.25;;
23169;SDS011;11753;43.144;24.714;2022-11-15T02:10:29;11.00;;;5.63;;
23169;SDS011;11753;43.144;24.714;2022-11-15T02:11:30;8.32;;;5.32;;
23169;SDS011;11753;43.144;24.714;2022-11-15T02:12:31;6.85;;;5.28;;
23169;SDS011;11753;43.144;24.714;2022-11-15T02:13:31;8.85;;;5.45;;
23169;SDS011;11753;43.144;24.714;2022-11-15T02:14:32;7.40;;;5.38;;
23169;SDS011;11753;43.144;24.714;2022-11-15T02:15:36;7.80;;;5.78;;
23169;SDS011;11753;43.144;24.714;2022-11-15T02:21:03;8.05;;;5.65;;
23169;SDS011;11753;43.144;24.714;2022-11-15T02:25:03;6.60;;;5.05;;
23169;SDS011;11753;43.144;24.714;2022-11-15T02:30:22;8.02;;;5.75;;
23169;SDS011;11753;43.144;24.714;2022-11-15T02:32:35;8.32;;;5.88;;
23169;SDS011;11753;43.144;24.714;2022-11-15T02:33:58;7.78;;;5.78;;
23169;SDS011;11753;43.144;24.714;2022-11-15T02:39:11;7.30;;;5.07;;
23169;SDS011;11753;43.144;24.714;2022-11-15T02:40:35;6.80;;;4.70;;
23169;SDS011;11753;43.144;24.714;2022-11-15T02:43:04;8.18;;;5.38;;
23169;SDS011;11753;43.144;24.714;2022-11-15T02:44:39;6.25;;;4.88;;
23169;SDS011;11753;43.144;24.714;2022-11-15T02:45:47;8.73;;;5.05;;
23169;SDS011;11753;43.144;24.714;2022-11-15T02:46:58;8.27;;;5.38;;
23169;SDS011;11753;43.144;24.714;2022-11-15T02:48:20;7.72;;;5.80;;
23169;SDS011;11753;43.144;24.714;2022-11-15T02:49:24;8.10;;;5.40;;
23169;SDS011;11753;43.144;24.714;2022-11-15T02:50:28;8.00;;;5.68;;
23169;SDS011;11753;43.144;24.714;2022-11-15T02:51:32;8.40;;;6.00;;
23169;SDS011;11753;43.144;24.714;2022-11-15T02:52:33;8.75;;;5.65;;
23169;SDS011;11753;43.144;24.714;2022-11-15T02:53:34;8.82;;;5.32;;
23169;SDS011;11753;43.144;24.714;2022-11-15T02:54:35;8.63;;;5.65;;
23169;SDS011;11753;43.144;24.714;2022-11-15T02:55:38;7.05;;;4.80;;
23169;SDS011;11753;43.144;24.714;2022-11-15T02:56:43;8.90;;;5.57;;
23169;SDS011;11753;43.144;24.714;2022-11-15T02:58:11;6.63;;;5.03;;
23169;SDS011;11753;43.144;24.714;2022-11-15T03:00:31;7.88;;;5.72;;
23169;SDS011;11753;43.144;24.714;2022-11-15T03:04:16;9.57;;;6.65;;
23169;SDS011;11753;43.144;24.714;2022-11-15T03:06:44;8.32;;;6.10;;
23169;SDS011;11753;43.144;24.714;2022-11-15T03:08:06;10.65;;;6.28;;
23169;SDS011;11753;43.144;24.714;2022-11-15T03:09:22;8.48;;;5.55;;
23169;SDS011;11753;43.144;24.714;2022-11-15T03:10:52;9.90;;;6.40;;
23169;SDS011;11753;43.144;24.714;2022-11-15T03:12:28;8.60;;;5.97;;
23169;SDS011;11753;43.144;24.714;2022-11-15T03:20:09;7.22;;;5.07;;
23169;SDS011;11753;43.144;24.714;2022-11-15T03:21:13;7.60;;;5.30;;
23169;SDS011;11753;43.144;24.714;2022-11-15T03:22:17;6.50;;;5.18;;
23169;SDS011;11753;43.144;24.714;2022-11-15T03:23:20;9.77;;;5.40;;
23169;SDS011;11753;43.144;24.714;2022-11-15T03:24:21;7.20;;;5.15;;
23169;SDS011;11753;43.144;24.714;2022-11-15T03:25:25;7.15;;;5.28;;
23169;SDS011;11753;43.144;24.714;2022-11-15T03:26:28;7.75;;;5.43;;
23169;SDS011;11753;43.144;24.714;2022-11-15T03:27:31;6.90;;;4.93;;
23169;SDS011;11753;43.144;24.714;2022-11-15T03:28:57;7.55;;;5.00;;
23169;SDS011;11753;43.144;24.714;2022-11-15T03:30:04;6.78;;;4.68;;
23169;SDS011;11753;43.144;24.714;2022-11-15T03:31:07;8.20;;;5.90;;
23169;SDS011;11753;43.144;24.714;2022-11-15T03:32:32;7.85;;;5.43;;
23169;SDS011;11753;43.144;24.714;2022-11-15T03:33:37;7.00;;;5.25;;
23169;SDS011;11753;43.144;24.714;2022-11-15T03:36:03;7.80;;;5.13;;
23169;SDS011;11753;43.144;24.714;2022-11-15T03:37:05;8.77;;;5.75;;
23169;SDS011;11753;43.144;24.714;2022-11-15T03:38:26;10.32;;;5.80;;
23169;SDS011;11753;43.144;24.714;2022-11-15T03:39:30;9.75;;;5.47;;
23169;SDS011;11753;43.144;24.714;2022-11-15T03:40:40;8.45;;;5.80;;
23169;SDS011;11753;43.144;24.714;2022-11-15T03:41:56;8.55;;;6.32;;
23169;SDS011;11753;43.144;24.714;2022-11-15T03:43:00;9.57;;;5.40;;
23169;SDS011;11753;43.144;24.714;2022-11-15T03:45:54;9.10;;;5.05;;
23169;SDS011;11753;43.144;24.714;2022-11-15T03:48:24;9.65;;;5.70;;
23169;SDS011;11753;43.144;24.714;2022-11-15T03:49:31;8.25;;;5.72;;
23169;SDS011;11753;43.144;24.714;2022-11-15T03:50:37;8.32;;;5.53;;
23169;SDS011;11753;43.144;24.714;2022-11-15T03:51:39;9.55;;;5.47;;
23169;SDS011;11753;43.144;24.714;2022-11-15T03:52:40;7.28;;;5.07;;
23169;SDS011;11753;43.144;24.714;2022-11-15T03:53:42;8.20;;;4.80;;
23169;SDS011;11753;43.144;24.714;2022-11-15T03:54:50;9.60;;;5.57;;
23169;SDS011;11753;43.144;24.714;2022-11-15T03:55:54;9.48;;;5.82;;
23169;SDS011;11753;43.144;24.714;2022-11-15T03:56:55;7.53;;;5.32;;
23169;SDS011;11753;43.144;24.714;2022-11-15T03:57:57;7.20;;;5.05;;
23169;SDS011;11753;43.144;24.714;2022-11-15T03:59:00;6.85;;;5.10;;
23169;SDS011;11753;43.144;24.714;2022-11-15T04:00:01;7.15;;;5.78;;
23169;SDS011;11753;43.144;24.714;2022-11-15T04:01:03;8.35;;;5.25;;
23169;SDS011;11753;43.144;24.714;2022-11-15T04:02:04;7.90;;;5.15;;
23169;SDS011;11753;43.144;24.714;2022-11-15T04:03:05;7.72;;;5.18;;
23169;SDS011;11753;43.144;24.714;2022-11-15T04:04:05;7.43;;;4.30;;
23169;SDS011;11753;43.144;24.714;2022-11-15T04:05:06;7.18;;;4.68;;
23169;SDS011;11753;43.144;24.714;2022-11-15T04:06:07;7.07;;;4.97;;
23169;SDS011;11753;43.144;24.714;2022-11-15T04:07:08;7.45;;;4.40;;
23169;SDS011;11753;43.144;24.714;2022-11-15T04:08:08;7.72;;;4.95;;
23169;SDS011;11753;43.144;24.714;2022-11-15T04:09:09;7.65;;;4.75;;
23169;SDS011;11753;43.144;24.714;2022-11-15T04:10:10;6.40;;;4.45;;
23169;SDS011;11753;43.144;24.714;2022-11-15T04:11:11;6.85;;;4.82;;
23169;SDS011;11753;43.144;24.714;2022-11-15T04:12:12;6.93;;;4.40;;
23169;SDS011;11753;43.144;24.714;2022-11-15T04:13:12;6.30;;;4.15;;
23169;SDS011;11753;43.144;24.714;2022-11-15T04:14:13;6.68;;;4.47;;
23169;SDS011;11753;43.144;24.714;2022-11-15T04:15:14;7.88;;;4.78;;
23169;SDS011;11753;43.144;24.714;2022-11-15T04:16:17;7.88;;;5.70;;
23169;SDS011;11753;43.144;24.714;2022-11-15T04:17:18;7.97;;;4.90;;
23169;SDS011;11753;43.144;24.714;2022-11-15T04:18:18;7.70;;;5.20;;
23169;SDS011;11753;43.144;24.714;2022-11-15T04:19:19;7.68;;;5.18;;
23169;SDS011;11753;43.144;24.714;2022-11-15T04:20:38;9.25;;;5.13;;
23169;SDS011;11753;43.144;24.714;2022-11-15T04:21:58;6.40;;;4.63;;
23169;SDS011;11753;43.144;24.714;2022-11-15T04:23:18;8.32;;;5.20;;
23169;SDS011;11753;43.144;24.714;2022-11-15T04:24:39;6.78;;;4.90;;
23169;SDS011;11753;43.144;24.714;2022-11-15T04:25:40;8.32;;;4.97;;
23169;SDS011;11753;43.144;24.714;2022-11-15T04:26:42;8.40;;;5.20;;
23169;SDS011;11753;43.144;24.714;2022-11-15T04:27:43;8.50;;;5.43;;
23169;SDS011;11753;43.144;24.714;2022-11-15T04:28:44;7.75;;;4.95;;
23169;SDS011;11753;43.144;24.714;2022-11-15T04:30:04;6.63;;;4.60;;
23169;SDS011;11753;43.144;24.714;2022-11-15T04:31:06;8.10;;;4.80;;
23169;SDS011;11753;43.144;24.714;2022-11-15T04:32:07;7.28;;;5.32;;
23169;SDS011;11753;43.144;24.714;2022-11-15T04:33:08;7.15;;;4.63;;
23169;SDS011;11753;43.144;24.714;2022-11-15T04:34:09;7.90;;;5.13;;
23169;SDS011;11753;43.144;24.714;2022-11-15T04:35:09;7.93;;;5.15;;
23169;SDS011;11753;43.144;24.714;2022-11-15T04:36:10;6.63;;;4.88;;
23169;SDS011;11753;43.144;24.714;2022-11-15T04:37:35;7.95;;;5.20;;
23169;SDS011;11753;43.144;24.714;2022-11-15T04:38:36;7.53;;;5.03;;
23169;SDS011;11753;43.144;24.714;2022-11-15T04:39:37;6.82;;;4.50;;
23169;SDS011;11753;43.144;24.714;2022-11-15T04:40:38;8.02;;;5.55;;
23169;SDS011;11753;43.144;24.714;2022-11-15T04:41:38;9.48;;;5.53;;
23169;SDS011;11753;43.144;24.714;2022-11-15T04:42:40;10.45;;;5.28;;
23169;SDS011;11753;43.144;24.714;2022-11-15T04:43:42;8.13;;;5.32;;
23169;SDS011;11753;43.144;24.714;2022-11-15T04:44:43;8.73;;;5.32;;
23169;SDS011;11753;43.144;24.714;2022-11-15T04:45:43;7.35;;;5.15;;
23169;SDS011;11753;43.144;24.714;2022-11-15T04:46:44;7.43;;;5.28;;
23169;SDS011;11753;43.144;24.714;2022-11-15T04:47:47;7.10;;;4.60;;
23169;SDS011;11753;43.144;24.714;2022-11-15T04:48:47;6.38;;;4.75;;
23169;SDS011;11753;43.144;24.714;2022-11-15T04:49:48;7.05;;;4.60;;
23169;SDS011;11753;43.144;24.714;2022-11-15T04:50:48;7.20;;;5.00;;
23169;SDS011;11753;43.144;24.714;2022-11-15T04:51:49;6.57;;;4.82;;
23169;SDS011;11753;43.144;24.714;2022-11-15T04:52:51;7.85;;;5.05;;
23169;SDS011;11753;43.144;24.714;2022-11-15T04:53:54;7.47;;;4.72;;
23169;SDS011;11753;43.144;24.714;2022-11-15T04:54:55;8.20;;;4.68;;
23169;SDS011;11753;43.144;24.714;2022-11-15T04:55:56;8.25;;;4.93;;
23169;SDS011;11753;43.144;24.714;2022-11-15T04:56:57;7.95;;;5.32;;
23169;SDS011;11753;43.144;24.714;2022-11-15T04:58:01;7.55;;;5.45;;
23169;SDS011;11753;43.144;24.714;2022-11-15T04:59:02;7.30;;;5.32;;
23169;SDS011;11753;43.144;24.714;2022-11-15T05:00:04;6.72;;;4.65;;
23169;SDS011;11753;43.144;24.714;2022-11-15T05:01:07;7.25;;;5.15;;
23169;SDS011;11753;43.144;24.714;2022-11-15T05:02:15;7.25;;;5.00;;
23169;SDS011;11753;43.144;24.714;2022-11-15T05:03:16;7.80;;;4.93;;
23169;SDS011;11753;43.144;24.714;2022-11-15T05:04:35;6.63;;;4.70;;
23169;SDS011;11753;43.144;24.714;2022-11-15T05:05:36;7.88;;;5.00;;
23169;SDS011;11753;43.144;24.714;2022-11-15T05:06:38;7.32;;;4.90;;
23169;SDS011;11753;43.144;24.714;2022-11-15T05:07:39;6.82;;;4.50;;
23169;SDS011;11753;43.144;24.714;2022-11-15T05:08:40;7.78;;;4.63;;
23169;SDS011;11753;43.144;24.714;2022-11-15T05:09:41;7.15;;;4.70;;
23169;SDS011;11753;43.144;24.714;2022-11-15T05:10:42;7.30;;;5.07;;
23169;SDS011;11753;43.144;24.714;2022-11-15T05:11:42;5.97;;;4.07;;
23169;SDS011;11753;43.144;24.714;2022-11-15T05:12:43;8.63;;;5.05;;
23169;SDS011;11753;43.144;24.714;2022-11-15T05:13:44;6.65;;;4.78;;
23169;SDS011;11753;43.144;24.714;2022-11-15T05:14:45;6.53;;;4.53;;
23169;SDS011;11753;43.144;24.714;2022-11-15T05:15:46;7.45;;;5.32;;
23169;SDS011;11753;43.144;24.714;2022-11-15T05:16:47;6.78;;;4.80;;
23169;SDS011;11753;43.144;24.714;2022-11-15T05:17:48;7.68;;;5.32;;
23169;SDS011;11753;43.144;24.714;2022-11-15T05:18:53;7.70;;;5.20;;
23169;SDS011;11753;43.144;24.714;2022-11-15T05:19:54;9.40;;;6.00;;
23169;SDS011;11753;43.144;24.714;2022-11-15T05:20:56;9.25;;;5.72;;
23169;SDS011;11753;43.144;24.714;2022-11-15T05:22:03;9.00;;;5.78;;
23169;SDS011;11753;43.144;24.714;2022-11-15T05:23:03;9.25;;;5.80;;
23169;SDS011;11753;43.144;24.714;2022-11-15T05:24:05;8.27;;;5.03;;
23169;SDS011;11753;43.144;24.714;2022-11-15T05:25:06;8.55;;;5.13;;
23169;SDS011;11753;43.144;24.714;2022-11-15T05:26:08;6.93;;;5.13;;
23169;SDS011;11753;43.144;24.714;2022-11-15T05:27:09;7.53;;;5.07;;
23169;SDS011;11753;43.144;24.714;2022-11-15T05:28:10;7.90;;;5.03;;
23169;SDS011;11753;43.144;24.714;2022-11-15T05:29:12;9.25;;;5.50;;
23169;SDS011;11753;43.144;24.714;2022-11-15T05:30:14;8.50;;;5.45;;
23169;SDS011;11753;43.144;24.714;2022-11-15T05:31:15;7.55;;;5.38;;
23169;SDS011;11753;43.144;24.714;2022-11-15T05:32:17;7.65;;;4.90;;
23169;SDS011;11753;43.144;24.714;2022-11-15T05:33:18;10.77;;;6.40;;
23169;SDS011;11753;43.144;24.714;2022-11-15T05:34:22;8.20;;;5.53;;
23169;SDS011;11753;43.144;24.714;2022-11-15T05:35:34;7.88;;;5.35;;
23169;SDS011;11753;43.144;24.714;2022-11-15T05:36:42;8.30;;;5.53;;
23169;SDS011;11753;43.144;24.714;2022-11-15T05:37:43;7.78;;;5.18;;
23169;SDS011;11753;43.144;24.714;2022-11-15T05:38:46;8.63;;;6.45;;
23169;SDS011;11753;43.144;24.714;2022-11-15T05:39:49;16.50;;;9.55;;
23169;SDS011;11753;43.144;24.714;2022-11-15T05:40:49;53.95;;;25.92;;
23169;SDS011;11753;43.144;24.714;2022-11-15T05:41:51;79.43;;;36.78;;
23169;SDS011;11753;43.144;24.714;2022-11-15T05:42:54;69.47;;;35.72;;
23169;SDS011;11753;43.144;24.714;2022-11-15T05:43:54;71.68;;;36.65;;
23169;SDS011;11753;43.144;24.714;2022-11-15T05:44:55;54.80;;;27.95;;
23169;SDS011;11753;43.144;24.714;2022-11-15T05:45:57;41.88;;;23.73;;
23169;SDS011;11753;43.144;24.714;2022-11-15T05:46:59;31.25;;;18.63;;
23169;SDS011;11753;43.144;24.714;2022-11-15T05:48:00;25.92;;;15.68;;
23169;SDS011;11753;43.144;24.714;2022-11-15T05:49:07;21.90;;;12.55;;
23169;SDS011;11753;43.144;24.714;2022-11-15T05:50:13;16.23;;;10.02;;
23169;SDS011;11753;43.144;24.714;2022-11-15T05:51:18;13.00;;;7.93;;
23169;SDS011;11753;43.144;24.714;2022-11-15T05:52:22;9.88;;;6.78;;
23169;SDS011;11753;43.144;24.714;2022-11-15T05:53:25;12.85;;;7.25;;
23169;SDS011;11753;43.144;24.714;2022-11-15T05:54:27;11.32;;;7.22;;
23169;SDS011;11753;43.144;24.714;2022-11-15T05:55:28;10.50;;;6.93;;
23169;SDS011;11753;43.144;24.714;2022-11-15T05:56:29;13.55;;;8.13;;
23169;SDS011;11753;43.144;24.714;2022-11-15T05:57:30;11.80;;;7.57;;
23169;SDS011;11753;43.144;24.714;2022-11-15T05:58:34;12.20;;;7.40;;
23169;SDS011;11753;43.144;24.714;2022-11-15T05:59:35;12.50;;;7.88;;
23169;SDS011;11753;43.144;24.714;2022-11-15T06:00:36;13.35;;;7.50;;
23169;SDS011;11753;43.144;24.714;2022-11-15T06:01:37;12.52;;;7.30;;
23169;SDS011;11753;43.144;24.714;2022-11-15T06:02:39;13.05;;;7.70;;
23169;SDS011;11753;43.144;24.714;2022-11-15T06:03:40;27.95;;;14.50;;
23169;SDS011;11753;43.144;24.714;2022-11-15T06:04:41;29.38;;;15.82;;
23169;SDS011;11753;43.144;24.714;2022-11-15T06:05:42;30.13;;;15.75;;
23169;SDS011;11753;43.144;24.714;2022-11-15T06:06:43;21.80;;;11.95;;
23169;SDS011;11753;43.144;24.714;2022-11-15T06:07:44;16.77;;;9.15;;
23169;SDS011;11753;43.144;24.714;2022-11-15T06:08:45;12.43;;;7.55;;
23169;SDS011;11753;43.144;24.714;2022-11-15T06:09:46;10.10;;;6.70;;
23169;SDS011;11753;43.144;24.714;2022-11-15T06:10:47;10.18;;;6.22;;
23169;SDS011;11753;43.144;24.714;2022-11-15T06:11:48;9.05;;;6.00;;
23169;SDS011;11753;43.144;24.714;2022-11-15T06:13:10;9.88;;;5.90;;
23169;SDS011;11753;43.144;24.714;2022-11-15T06:14:10;11.05;;;6.28;;
23169;SDS011;11753;43.144;24.714;2022-11-15T06:15:11;8.05;;;5.45;;
23169;SDS011;11753;43.144;24.714;2022-11-15T06:16:12;7.70;;;5.65;;
23169;SDS011;11753;43.144;24.714;2022-11-15T06:17:12;7.40;;;5.30;;
23169;SDS011;11753;43.144;24.714;2022-11-15T06:18:13;7.43;;;5.28;;
23169;SDS011;11753;43.144;24.714;2022-11-15T06:19:13;8.00;;;5.15;;
23169;SDS011;11753;43.144;24.714;2022-11-15T06:20:14;7.88;;;5.70;;
23169;SDS011;11753;43.144;24.714;2022-11-15T06:21:15;9.88;;;6.03;;
23169;SDS011;11753;43.144;24.714;2022-11-15T06:22:15;7.78;;;5.53;;
23169;SDS011;11753;43.144;24.714;2022-11-15T06:23:16;7.75;;;5.07;;
23169;SDS011;11753;43.144;24.714;2022-11-15T06:24:17;8.48;;;5.05;;
23169;SDS011;11753;43.144;24.714;2022-11-15T06:25:18;7.25;;;5.00;;
23169;SDS011;11753;43.144;24.714;2022-11-15T06:26:18;8.02;;;5.60;;
23169;SDS011;11753;43.144;24.714;2022-11-15T06:27:19;8.25;;;5.40;;
23169;SDS011;11753;43.144;24.714;2022-11-15T06:28:19;9.25;;;5.95;;
23169;SDS011;11753;43.144;24.714;2022-11-15T06:29:20;9.20;;;6.13;;
23169;SDS011;11753;43.144;24.714;2022-11-15T06:30:21;7.03;;;4.88;;
23169;SDS011;11753;43.144;24.714;2022-11-15T06:31:23;6.82;;;5.47;;
23169;SDS011;11753;43.144;24.714;2022-11-15T06:32:24;7.63;;;5.13;;
23169;SDS011;11753;43.144;24.714;2022-11-15T06:33:24;7.75;;;5.43;;
23169;SDS011;11753;43.144;24.714;2022-11-15T06:34:25;9.63;;;5.60;;
23169;SDS011;11753;43.144;24.714;2022-11-15T06:35:25;8.88;;;5.72;;
23169;SDS011;11753;43.144;24.714;2022-11-15T06:36:26;15.35;;;10.27;;
23169;SDS011;11753;43.144;24.714;2022-11-15T06:37:26;13.98;;;10.43;;
23169;SDS011;11753;43.144;24.714;2022-11-15T06:38:27;12.88;;;9.82;;
23169;SDS011;11753;43.144;24.714;2022-11-15T06:39:27;16.05;;;12.02;;
23169;SDS011;11753;43.144;24.714;2022-11-15T06:40:28;18.45;;;12.73;;
23169;SDS011;11753;43.144;24.714;2022-11-15T06:41:28;15.65;;;10.35;;
23169;SDS011;11753;43.144;24.714;2022-11-15T06:42:29;13.85;;;10.35;;
23169;SDS011;11753;43.144;24.714;2022-11-15T06:43:30;13.80;;;9.88;;
23169;SDS011;11753;43.144;24.714;2022-11-15T06:44:31;15.40;;;10.60;;
23169;SDS011;11753;43.144;24.714;2022-11-15T06:45:32;17.88;;;12.23;;
23169;SDS011;11753;43.144;24.714;2022-11-15T06:46:32;16.40;;;11.48;;
23169;SDS011;11753;43.144;24.714;2022-11-15T06:47:33;18.90;;;13.18;;
23169;SDS011;11753;43.144;24.714;2022-11-15T06:48:33;25.60;;;15.98;;
23169;SDS011;11753;43.144;24.714;2022-11-15T06:49:34;23.10;;;14.80;;